PDT,Max TemperatureF,Mean TemperatureF,Min TemperatureF,Max Dew PointF,MeanDew PointF,Min DewpointF,Max Humidity, Mean Humidity, Min Humidity, Max Sea Level PressureIn, Mean Sea Level PressureIn, Min Sea Level PressureIn, Max VisibilityMiles, Mean VisibilityMiles, Min VisibilityMiles, Max Wind SpeedMPH, Mean Wind SpeedMPH, Max Gust SpeedMPH,PrecipitationIn, CloudCover, Events, WindDirDegrees
2014-5-1,84,59,36,25,15,2,48,22,4,30.29,30.12,30.02,10,10,10,9,4,,0.00,4,,203
2014-5-2,87,66,46,27,22,12,42,22,7,30.17,30.00,29.90,10,10,10,18,8,16,0.00,4,,222
2014-5-3,82,64,45,21,16,10,37,18,7,29.93,29.85,29.77,10,10,10,22,8,30,0.00,3,,210
2014-5-4,80,61,44,26,22,18,42,23,13,29.91,29.82,29.77,10,10,10,25,7,30,0.00,2,,308
2014-5-5,72,60,48,30,25,20,44,29,14,29.90,29.78,29.68,10,10,9,23,7,32,0.00,6,,325
2014-5-6,63,51,42,41,30,19,86,51,21,29.83,29.76,29.72,10,10,7,21,12,26,0.04,6,Rain,353
2014-5-7,66,51,36,26,21,14,59,33,13,29.86,29.81,29.77,10,10,10,20,6,29,0.00,5,,359
2014-5-8,72,54,37,34,28,20,53,35,20,29.96,29.87,29.82,10,10,10,24,8,32,0.00,5,,205
2014-5-9,73,59,46,34,28,18,61,33,13,29.99,29.90,29.85,10,10,10,20,9,31,0.00,4,,292
2014-5-10,59,49,39,30,25,13,55,38,18,30.00,29.92,29.84,10,9,0,37,14,53,0.00,4,,339
2014-5-11,66,48,30,25,20,11,69,36,13,30.21,30.06,30.01,10,10,10,14,7,21,0.00,0,,348
2014-5-12,72,52,33,25,17,11,50,27,10,30.26,30.15,30.09,10,10,10,12,5,21,0.00,2,,353
2014-5-13,79,58,36,18,14,5,46,20,6,30.27,30.21,30.16,10,10,10,8,5,,0.00,2,,339
2014-5-14,84,60,39,24,16,10,39,20,8,30.36,30.18,30.09,10,10,8,10,3,,0.00,1,,186
2014-5-15,89,68,46,26,21,17,40,19,7,30.24,30.09,29.98,10,10,10,15,5,,0.00,5,,221
2014-5-16,91,71,51,24,16,4,32,14,4,30.14,29.98,29.89,10,10,10,23,8,34,0.00,4,,227
2014-5-17,88,67,46,17,11,6,28,12,5,29.95,29.85,29.77,10,10,10,24,8,36,0.00,3,,244
2014-5-18,80,62,46,27,18,1,35,20,6,29.85,29.78,29.72,10,10,10,26,8,32,0.00,1,,280
2014-5-19,71,56,42,41,28,22,74,35,16,29.87,29.81,29.73,10,10,10,17,6,37,0.00,5,Rain,294
2014-5-20,52,48,44,46,44,40,97,87,71,29.94,29.87,29.83,10,9,2,18,11,,0.64,8,Rain,341
2014-5-21,64,54,46,48,45,40,100,78,43,30.01,29.93,29.86,10,10,4,18,5,28,0.20,7,Rain-Thunderstorm,344
2014-5-22,71,58,45,48,43,34,93,66,27,30.18,30.01,29.95,10,10,5,21,6,30,0.09,3,Rain-Thunderstorm,141
2014-5-23,81,63,46,48,43,31,93,55,18,30.13,29.99,29.90,10,10,10,8,4,,0.00,3,,149
2014-5-24,82,70,57,48,41,24,70,39,12,29.98,29.94,29.90,10,10,10,14,8,20,0.00,2,,350
2014-5-25,88,68,50,43,35,28,69,32,12,30.07,29.94,29.87,10,10,10,15,4,,0.00,2,,202
2014-5-26,93,74,54,41,29,13,57,25,5,29.98,29.93,29.88,10,10,10,25,8,33,0.00,0,,219
2014-5-27,93,72,52,36,25,13,53,23,5,30.04,29.91,29.83,10,10,10,22,7,33,0.00,0,,240
2014-5-28,84,65,46,30,17,-3,51,22,4,29.98,29.90,29.83,10,10,10,23,8,29,0.00,1,,308
2014-5-29,77,57,39,24,19,13,49,24,9,30.12,29.97,29.88,10,10,10,12,5,,0.00,3,,3
2014-5-30,84,62,42,26,20,12,53,21,7,29.90,29.86,29.80,10,10,10,10,5,,0.00,4,,301
2014-5-31,84,62,43,27,20,14,51,21,8,29.92,29.88,29.82,10,10,10,12,7,18,0.00,0,,303